createdAt,value
2018-05-21T00:00:35.154Z,101975.86
2018-05-21T00:03:01.299Z,101979.83
2018-05-21T00:05:27.183Z,101977.62
2018-05-21T00:07:53.044Z,101978.09
2018-05-21T00:10:19.064Z,101973.70
2018-05-21T00:12:44.931Z,101966.70
2018-05-21T00:15:10.867Z,101967.56
2018-05-21T00:17:36.836Z,101964.95
2018-05-21T00:20:02.814Z,101962.76
2018-05-21T00:22:28.775Z,101957.05
2018-05-21T00:24:54.707Z,101958.40
2018-05-21T00:27:20.559Z,101959.25
2018-05-21T00:29:46.412Z,101950.08
2018-05-21T00:32:12.340Z,101946.13
2018-05-21T00:34:38.327Z,101949.19
2018-05-21T00:37:04.257Z,101947.89
2018-05-21T00:39:31.415Z,101944.82
2018-05-21T00:41:57.290Z,101944.83
2018-05-21T00:44:23.161Z,101946.11
2018-05-21T00:46:49.160Z,101948.77
2018-05-21T00:49:15.037Z,101949.19
2018-05-21T00:51:40.922Z,101948.75
2018-05-21T00:54:06.859Z,101952.25
2018-05-21T00:56:32.751Z,101947.01
2018-05-21T00:58:58.710Z,101940.88
2018-05-21T01:01:24.631Z,101943.94
2018-05-21T01:03:50.505Z,101947.89
2018-05-21T01:06:16.388Z,101938.24
2018-05-21T01:08:42.308Z,101944.80
2018-05-21T01:11:08.307Z,101951.38
2018-05-21T01:13:34.228Z,101940.86
2018-05-21T01:16:00.158Z,101947.84
2018-05-21T01:18:26.064Z,101950.94
2018-05-21T01:20:51.946Z,101950.05
2018-05-21T01:23:17.935Z,101948.28
2018-05-21T01:25:43.807Z,101946.11
2018-05-21T01:28:09.671Z,101943.05
2018-05-21T01:30:35.608Z,101944.38
2018-05-21T01:33:01.529Z,101943.05
2018-05-21T01:35:27.508Z,101947.86
2018-05-21T01:37:53.427Z,101946.09
2018-05-21T01:40:19.309Z,101949.17
2018-05-21T01:42:45.183Z,101949.17
2018-05-21T01:45:11.100Z,101947.84
2018-05-21T01:47:37.086Z,101944.36
2018-05-21T01:50:03.012Z,101949.63
2018-05-21T01:52:29.332Z,101946.98
2018-05-21T01:54:55.200Z,101945.22
2018-05-21T01:57:21.071Z,101956.17
2018-05-21T01:59:47.072Z,101957.48
2018-05-21T02:02:12.935Z,101952.20
2018-05-21T02:04:39.939Z,101946.52
2018-05-21T02:07:06.042Z,101954.38
2018-05-21T02:09:31.936Z,101948.25
2018-05-21T02:11:57.908Z,101943.00
2018-05-21T02:14:23.874Z,101949.13
2018-05-21T02:16:49.809Z,101941.28
2018-05-21T02:19:15.683Z,101948.69
2018-05-21T02:21:41.597Z,101946.50
2018-05-21T02:24:07.579Z,101939.94
2018-05-21T02:26:33.502Z,101942.58
2018-05-21T02:28:59.455Z,101937.74
2018-05-21T02:31:25.331Z,101924.63
2018-05-21T02:33:51.197Z,101922.44
2018-05-21T02:36:17.213Z,101932.50
2018-05-21T02:38:43.092Z,101937.75
2018-05-21T02:41:09.020Z,101939.92
2018-05-21T02:43:34.981Z,101938.16
2018-05-21T02:46:01.149Z,101946.05
2018-05-21T02:48:27.090Z,101946.02
2018-05-21T02:50:53.015Z,101939.91
2018-05-21T02:53:18.939Z,101944.27
2018-05-21T02:55:44.818Z,101943.39
2018-05-21T02:58:10.727Z,101947.78
2018-05-21T03:00:36.795Z,101937.24
2018-05-21T03:03:02.713Z,101947.33
2018-05-21T03:05:28.695Z,101938.14
2018-05-21T03:07:54.561Z,101939.89
2018-05-21T03:10:20.488Z,101934.22
2018-05-21T03:12:46.508Z,101931.17
2018-05-21T03:15:12.387Z,101933.36
2018-05-21T03:17:38.314Z,101929.42
2018-05-21T03:20:04.263Z,101931.18
2018-05-21T03:22:30.131Z,101936.86
2018-05-21T03:24:56.108Z,101929.84
2018-05-21T03:27:22.029Z,101933.80
2018-05-21T03:29:48.007Z,101938.62
2018-05-21T03:32:13.863Z,101938.63
2018-05-21T03:34:40.165Z,101937.73
2018-05-21T03:37:06.155Z,101937.30
2018-05-21T03:39:32.072Z,101934.67
2018-05-21T03:41:58.051Z,101935.53
2018-05-21T03:44:23.920Z,101933.79
2018-05-21T03:46:49.792Z,101932.92
2018-05-21T03:49:15.883Z,101938.20
2018-05-21T03:51:41.766Z,101939.93
2018-05-21T03:54:07.715Z,101933.38
2018-05-21T03:56:34.077Z,101935.56
2018-05-21T03:59:12.323Z,101936.88
2018-05-21T04:01:50.738Z,101938.19
2018-05-21T04:04:16.681Z,101939.52
2018-05-21T04:06:42.660Z,101935.58
2018-05-21T04:09:08.573Z,101943.02
2018-05-21T04:11:34.473Z,101939.54
2018-05-21T04:14:00.403Z,101942.60
2018-05-21T04:16:26.368Z,101938.23
2018-05-21T04:18:52.351Z,101936.06
2018-05-21T04:21:18.135Z,101938.27
2018-05-21T04:23:44.048Z,101940.44
2018-05-21T04:26:10.007Z,101936.94
2018-05-21T04:28:35.921Z,101939.99
2018-05-21T04:31:01.883Z,101938.67
2018-05-21T04:33:27.755Z,101938.63
2018-05-21T04:35:53.618Z,101941.69
2018-05-21T04:38:19.511Z,101943.45
2018-05-21T04:40:45.417Z,101950.00
2018-05-21T04:43:11.280Z,101946.44
2018-05-21T04:45:37.232Z,101944.61
2018-05-21T04:48:03.155Z,101941.50
2018-05-21T04:50:29.023Z,101941.90
2018-05-21T04:52:54.951Z,101942.28
2018-05-21T04:55:20.852Z,101945.24
2018-05-21T04:57:46.711Z,101943.73
2018-05-21T05:00:12.683Z,101949.18
2018-05-21T05:02:38.579Z,101944.28
2018-05-21T05:05:04.615Z,101936.73
2018-05-21T05:07:30.543Z,101950.52
2018-05-21T05:09:56.468Z,101943.30
2018-05-21T05:12:22.517Z,101938.67
2018-05-21T05:14:48.447Z,101948.94
2018-05-21T05:17:14.420Z,101943.20
2018-05-21T05:19:40.296Z,101944.23
2018-05-21T05:22:06.684Z,101939.17
2018-05-21T05:24:32.619Z,101937.72
2018-05-21T05:26:58.549Z,101937.90
2018-05-21T05:29:24.536Z,101939.05
2018-05-21T05:31:50.397Z,101937.41
2018-05-21T05:34:16.271Z,101930.02
2018-05-21T05:36:42.197Z,101930.14
2018-05-21T05:39:08.099Z,101936.91
2018-05-21T05:41:34.019Z,101931.34
2018-05-21T05:43:59.931Z,101925.24
2018-05-21T05:46:25.807Z,101928.30
2018-05-21T05:48:51.782Z,101927.09
2018-05-21T05:51:17.699Z,101935.77
2018-05-21T05:53:43.573Z,101934.66
2018-05-21T05:56:09.459Z,101941.50
2018-05-21T05:58:35.454Z,101939.12
2018-05-21T06:01:01.405Z,101939.31
2018-05-21T06:03:27.282Z,101938.59
2018-05-21T06:05:53.206Z,101938.55
2018-05-21T06:08:19.067Z,101932.13
2018-05-21T06:10:45.195Z,101928.83
2018-05-21T06:13:11.108Z,101924.69
2018-05-21T06:15:37.000Z,101927.06
2018-05-21T06:18:03.021Z,101928.23
2018-05-21T06:20:28.947Z,101919.36
2018-05-21T06:22:54.799Z,101922.66
2018-05-21T06:25:20.679Z,101918.21
2018-05-21T06:27:46.600Z,101919.42
2018-05-21T06:30:12.595Z,101913.33
2018-05-21T06:32:38.474Z,101912.30
2018-05-21T06:35:04.440Z,101913.30
2018-05-21T06:37:30.409Z,101907.81
2018-05-21T06:39:56.280Z,101905.75
2018-05-21T06:42:22.251Z,101908.45
2018-05-21T06:44:48.128Z,101897.81
2018-05-21T06:47:14.063Z,101896.00
2018-05-21T06:49:40.099Z,101896.67
2018-05-21T06:52:05.972Z,101893.48
2018-05-21T06:54:31.939Z,101897.83
2018-05-21T06:56:57.872Z,101895.50
2018-05-21T06:59:23.758Z,101893.63
2018-05-21T07:01:49.641Z,101892.02
2018-05-21T07:04:15.572Z,101894.59
2018-05-21T07:06:41.494Z,101887.23
2018-05-21T07:09:07.400Z,101887.97
2018-05-21T07:11:33.373Z,101884.44
2018-05-21T07:13:59.243Z,101883.83
2018-05-21T07:16:25.129Z,101875.67
2018-05-21T07:18:51.031Z,101883.74
2018-05-21T07:21:16.903Z,101884.80
2018-05-21T07:23:42.763Z,101875.74
2018-05-21T07:26:08.725Z,101876.89
2018-05-21T07:28:34.607Z,101873.16
2018-05-21T07:31:00.467Z,101878.52
2018-05-21T07:33:26.392Z,101879.80
2018-05-21T07:35:52.258Z,101873.38
2018-05-21T07:38:18.207Z,101872.01
2018-05-21T07:40:44.123Z,101867.93
2018-05-21T07:43:09.995Z,101872.10
2018-05-21T07:45:35.883Z,101869.41
2018-05-21T07:48:01.805Z,101866.52
2018-05-21T07:50:27.700Z,101865.88
2018-05-21T07:52:53.576Z,101853.10
2018-05-21T07:55:19.530Z,101857.19
2018-05-21T07:57:45.460Z,101849.02
2018-05-21T08:00:11.382Z,101850.31
2018-05-21T08:02:37.306Z,101848.59
2018-05-21T08:05:03.331Z,101838.08
2018-05-21T08:07:29.167Z,101836.77
2018-05-21T08:09:55.078Z,101833.83
2018-05-21T08:12:20.980Z,101834.25
2018-05-21T08:14:47.015Z,101829.70
2018-05-21T08:17:12.856Z,101825.55
2018-05-21T08:19:38.738Z,101821.52
2018-05-21T08:22:04.622Z,101815.08
2018-05-21T08:24:30.556Z,101817.25
2018-05-21T08:26:56.472Z,101810.17
2018-05-21T08:29:22.353Z,101811.24
2018-05-21T08:31:48.379Z,101806.42
2018-05-21T08:34:14.236Z,101804.52
2018-05-21T08:36:40.151Z,101799.52
2018-05-21T08:39:06.095Z,101797.16
2018-05-21T08:41:32.009Z,101791.26
2018-05-21T08:43:57.911Z,101781.97
2018-05-21T08:46:23.884Z,101790.06
2018-05-21T08:48:49.941Z,101782.73
2018-05-21T08:51:15.723Z,101782.68
2018-05-21T08:53:41.662Z,101776.55
2018-05-21T08:56:07.541Z,101776.79
2018-05-21T08:58:33.430Z,101773.65
2018-05-21T09:00:59.395Z,101770.34
2018-05-21T09:03:25.302Z,101760.39
2018-05-21T09:05:51.179Z,101764.38
2018-05-21T09:08:17.203Z,101754.30
2018-05-21T09:10:43.069Z,101756.94
2018-05-21T09:13:08.965Z,101748.14
2018-05-21T09:15:34.909Z,101755.89
2018-05-21T09:18:00.796Z,101749.59
2018-05-21T09:20:26.781Z,101748.71
2018-05-21T09:22:52.694Z,101747.70
2018-05-21T09:25:18.618Z,101742.48
2018-05-21T09:27:44.511Z,101746.44
2018-05-21T09:30:16.921Z,101740.50
2018-05-21T09:32:42.862Z,101730.31
2018-05-21T09:35:08.763Z,101738.69
2018-05-21T09:37:34.819Z,101732.56
2018-05-21T09:40:00.716Z,101726.95
2018-05-21T09:42:26.643Z,101713.36
2018-05-21T09:44:52.560Z,101725.56
2018-05-21T09:47:18.511Z,101731.03
2018-05-21T09:49:44.387Z,101713.33
2018-05-21T09:52:10.364Z,101715.37
2018-05-21T09:54:36.221Z,101723.08
2018-05-21T09:57:02.124Z,101725.13
2018-05-21T09:59:28.059Z,101711.55
2018-05-21T10:01:53.930Z,101717.91
2018-05-21T10:04:21.871Z,101721.78
2018-05-21T10:06:47.810Z,101713.45
2018-05-21T10:09:13.716Z,101706.35
2018-05-21T10:11:39.690Z,101706.68
2018-05-21T10:14:05.614Z,101698.34
2018-05-21T10:16:31.516Z,101694.97
2018-05-21T10:18:57.396Z,101691.58
2018-05-21T10:21:23.331Z,101694.60
2018-05-21T10:23:49.305Z,101678.22
2018-05-21T10:26:15.178Z,101674.86
2018-05-21T10:28:41.113Z,101679.82
2018-05-21T10:31:08.039Z,101685.91
2018-05-21T10:33:33.939Z,101663.95
2018-05-21T10:35:59.913Z,101663.64
2018-05-21T10:38:25.796Z,101658.38
2018-05-21T10:40:51.721Z,101653.80
2018-05-21T10:43:17.667Z,101664.48
2018-05-21T10:45:43.565Z,101665.52
2018-05-21T10:50:35.297Z,101647.90
2018-05-21T10:53:01.172Z,101652.81
2018-05-21T10:55:27.077Z,101639.18
2018-05-21T10:57:53.037Z,101635.52
2018-05-21T11:00:19.967Z,101632.02
2018-05-21T11:02:45.870Z,101626.95
2018-05-21T11:05:11.807Z,101633.39
2018-05-21T11:07:37.683Z,101629.71
2018-05-21T11:10:03.588Z,101623.00
2018-05-21T11:12:29.618Z,101625.40
2018-05-21T11:14:55.499Z,101629.19
2018-05-21T11:17:21.401Z,101619.56
2018-05-21T11:19:47.383Z,101604.06
2018-05-21T11:22:13.255Z,101597.50
2018-05-21T11:24:39.187Z,101613.25
2018-05-21T11:27:05.084Z,101599.92
2018-05-21T11:29:31.421Z,101602.96
2018-05-21T11:31:57.296Z,101607.73
2018-05-21T11:34:23.231Z,101597.25
2018-05-21T11:36:49.168Z,101590.09
2018-05-21T11:39:15.049Z,101583.97
2018-05-21T11:41:40.973Z,101579.86
2018-05-21T11:44:06.845Z,101579.84
2018-05-21T11:46:32.703Z,101579.46
2018-05-21T11:48:58.613Z,101572.83
2018-05-21T11:51:24.482Z,101562.89
2018-05-21T11:53:50.424Z,101558.23
2018-05-21T11:56:16.713Z,101542.66
2018-05-21T11:58:42.601Z,101544.03
2018-05-21T12:01:08.504Z,101538.05
2018-05-21T12:03:34.469Z,101539.89
2018-05-21T12:06:00.356Z,101539.40
2018-05-21T12:08:26.235Z,101537.25
2018-05-21T12:10:52.185Z,101544.66
2018-05-21T12:13:18.135Z,101546.77
2018-05-21T12:15:44.005Z,101524.35
2018-05-21T12:18:09.964Z,101529.77
2018-05-21T12:20:35.872Z,101518.50
2018-05-21T12:23:01.764Z,101519.41
2018-05-21T12:25:27.672Z,101521.39
2018-05-21T12:27:53.605Z,101513.38
2018-05-21T12:30:19.520Z,101509.47
2018-05-21T12:32:45.737Z,101505.30
2018-05-21T12:35:11.683Z,101510.84
2018-05-21T12:37:37.552Z,101504.00
2018-05-21T12:40:06.640Z,101494.55
2018-05-21T12:42:32.512Z,101507.23
2018-05-21T12:44:58.383Z,101497.67
2018-05-21T12:47:24.327Z,101486.17
2018-05-21T12:49:50.235Z,101488.44
2018-05-21T12:52:16.106Z,101486.14
2018-05-21T12:54:42.051Z,101488.81
2018-05-21T12:57:07.928Z,101487.01
2018-05-21T12:59:33.923Z,101483.84
2018-05-21T13:01:59.855Z,101480.20
2018-05-21T13:04:25.740Z,101478.42
2018-05-21T13:06:51.707Z,101477.52
2018-05-21T13:09:18.775Z,101470.47
2018-05-21T13:11:44.708Z,101462.36
2018-05-21T13:14:10.672Z,101457.00
2018-05-21T13:16:36.581Z,101464.47
2018-05-21T13:19:02.491Z,101457.84
2018-05-21T13:21:28.367Z,101448.41
2018-05-21T13:23:54.371Z,101460.92
2018-05-21T13:26:20.354Z,101453.05
2018-05-21T13:28:46.275Z,101457.64
2018-05-21T13:31:12.188Z,101453.06
2018-05-21T13:33:38.092Z,101445.54
2018-05-21T13:36:04.039Z,101443.31
2018-05-21T13:38:30.019Z,101438.31
2018-05-21T13:40:55.937Z,101432.72
2018-05-21T13:43:21.829Z,101436.70
2018-05-21T13:45:47.839Z,101434.47
2018-05-21T13:48:13.877Z,101425.90
2018-05-21T13:50:39.847Z,101435.25
2018-05-21T13:53:05.796Z,101429.03
2018-05-21T13:55:31.673Z,101426.53
2018-05-21T13:57:57.580Z,101415.55
2018-05-21T14:00:23.575Z,101416.23
2018-05-21T14:02:49.578Z,101421.25
2018-05-21T14:05:15.451Z,101417.20
2018-05-21T14:07:41.403Z,101424.53
2018-05-21T14:10:07.278Z,101425.33
2018-05-21T14:12:33.252Z,101425.03
2018-05-21T14:14:59.214Z,101421.54
2018-05-21T14:17:25.166Z,101418.08
2018-05-21T14:19:51.068Z,101420.55
2018-05-21T14:22:17.053Z,101411.62
2018-05-21T14:24:44.164Z,101412.92
2018-05-21T14:27:10.248Z,101402.94
2018-05-21T14:29:36.668Z,101393.62
2018-05-21T14:32:02.569Z,101387.98
2018-05-21T14:34:28.784Z,101394.51
2018-05-21T14:36:54.884Z,101391.49
2018-05-21T14:39:20.780Z,101385.11
2018-05-21T14:41:46.635Z,101383.10
2018-05-21T14:44:12.569Z,101384.65
2018-05-21T14:46:38.651Z,101387.75
2018-05-21T14:49:04.609Z,101375.56
2018-05-21T14:51:30.555Z,101382.30
2018-05-21T14:53:56.416Z,101373.01
2018-05-21T14:56:22.284Z,101383.91
2018-05-21T14:58:48.387Z,101369.25
2018-05-21T15:01:16.324Z,101376.92
2018-05-21T15:03:42.297Z,101377.48
2018-05-21T15:06:08.288Z,101362.98
2018-05-21T15:08:34.278Z,101365.56
2018-05-21T15:11:00.140Z,101357.07
2018-05-21T15:13:26.076Z,101347.64
2018-05-21T15:15:52.012Z,101346.58
2018-05-21T15:18:17.966Z,101341.67
2018-05-21T15:20:43.900Z,101335.25
2018-05-21T15:23:09.842Z,101335.80
2018-05-21T15:25:35.761Z,101326.83
2018-05-21T15:28:01.679Z,101325.56
2018-05-21T15:30:27.588Z,101332.80
2018-05-21T15:32:53.498Z,101324.99
2018-05-21T15:35:19.460Z,101324.31
2018-05-21T15:37:45.342Z,101325.70
2018-05-21T15:40:11.219Z,101327.64
2018-05-21T15:42:37.162Z,101317.53
2018-05-21T15:45:03.068Z,101317.67
2018-05-21T15:47:29.380Z,101316.22
2018-05-21T15:49:55.295Z,101309.77
2018-05-21T15:52:21.207Z,101312.13
2018-05-21T15:54:47.128Z,101310.12
2018-05-21T15:57:13.055Z,101305.88
2018-05-21T15:59:38.939Z,101303.52
2018-05-21T16:02:04.839Z,101310.42
2018-05-21T16:04:30.783Z,101305.88
2018-05-21T16:06:56.781Z,101306.68
2018-05-21T16:09:22.678Z,101301.94
2018-05-21T16:11:49.713Z,101296.90
2018-05-21T16:14:15.664Z,101296.19
2018-05-21T16:16:41.619Z,101300.11
2018-05-21T16:19:07.618Z,101291.78
2018-05-21T16:21:33.569Z,101292.86
2018-05-21T16:24:00.551Z,101293.55
2018-05-21T16:26:26.486Z,101288.77
2018-05-21T16:28:52.477Z,101288.72
2018-05-21T16:31:19.557Z,101291.17
2018-05-21T16:33:45.508Z,101280.52
2018-05-21T16:36:11.390Z,101286.77
2018-05-21T16:38:37.332Z,101281.39
2018-05-21T16:41:03.343Z,101281.72
2018-05-21T16:43:29.287Z,101273.28
2018-05-21T16:45:55.182Z,101275.72
2018-05-21T16:48:21.114Z,101275.01
2018-05-21T16:50:46.984Z,101278.69
2018-05-21T16:53:12.871Z,101272.10
2018-05-21T16:55:38.796Z,101273.13
2018-05-21T16:58:04.723Z,101278.49
2018-05-21T17:00:30.740Z,101273.29
2018-05-21T17:02:56.615Z,101273.72
2018-05-21T17:05:22.500Z,101272.70
2018-05-21T17:07:48.412Z,101274.17
2018-05-21T17:10:14.385Z,101272.23
2018-05-21T17:12:40.264Z,101270.09
2018-05-21T17:15:06.133Z,101274.57
2018-05-21T17:17:32.081Z,101269.62
2018-05-21T17:19:58.019Z,101265.87
2018-05-21T17:22:23.899Z,101263.81
2018-05-21T17:24:50.060Z,101268.75
2018-05-21T17:27:15.946Z,101267.27
2018-05-21T17:29:41.915Z,101266.36
2018-05-21T17:32:07.859Z,101264.45
2018-05-21T17:34:33.723Z,101267.27
2018-05-21T17:36:59.630Z,101268.95
2018-05-21T17:39:25.624Z,101263.97
2018-05-21T17:41:51.552Z,101264.84
2018-05-21T17:44:18.460Z,101262.16
2018-05-21T17:46:44.392Z,101267.72
2018-05-21T17:49:10.271Z,101271.45
2018-05-21T17:51:36.201Z,101271.89
2018-05-21T17:54:02.094Z,101267.13
2018-05-21T17:56:27.990Z,101264.36
2018-05-21T17:58:53.871Z,101271.39
2018-05-21T18:01:19.809Z,101273.81
2018-05-21T18:03:45.796Z,101281.13
2018-05-21T18:06:11.696Z,101278.95
2018-05-21T18:08:38.736Z,101269.34
2018-05-21T18:11:04.604Z,101280.52
2018-05-21T18:13:30.496Z,101275.08
2018-05-21T18:15:56.472Z,101275.23
2018-05-21T18:18:22.351Z,101273.08
2018-05-21T18:20:48.346Z,101271.77
2018-05-21T18:23:14.352Z,101265.48
2018-05-21T18:25:40.259Z,101271.50
2018-05-21T18:28:06.151Z,101276.72
2018-05-21T18:30:32.114Z,101278.14
2018-05-21T18:32:58.079Z,101274.23
2018-05-21T18:35:23.952Z,101274.32
2018-05-21T18:37:49.868Z,101278.13
2018-05-21T18:40:15.784Z,101272.41
2018-05-21T18:42:41.789Z,101277.53
2018-05-21T18:45:07.793Z,101277.42
2018-05-21T18:47:33.667Z,101277.97
2018-05-21T18:49:59.560Z,101270.06
2018-05-21T18:52:25.480Z,101275.06
2018-05-21T18:54:51.352Z,101273.63
2018-05-21T18:57:17.267Z,101276.59
2018-05-21T18:59:43.228Z,101273.45
2018-05-21T19:02:09.130Z,101278.92
2018-05-21T19:04:35.012Z,101275.67
2018-05-21T19:07:00.943Z,101275.52
2018-05-21T19:09:26.897Z,101278.58
2018-05-21T19:11:52.849Z,101272.42
2018-05-21T19:14:19.191Z,101276.36
2018-05-21T19:16:45.096Z,101283.49
2018-05-21T19:19:11.033Z,101283.30
2018-05-21T19:21:37.033Z,101285.34
2018-05-21T19:24:03.067Z,101285.94
2018-05-21T19:26:29.021Z,101283.11
2018-05-21T19:28:54.987Z,101287.63
2018-05-21T19:31:20.883Z,101291.50
2018-05-21T19:33:46.874Z,101293.28
2018-05-21T19:36:12.840Z,101288.02
2018-05-21T19:38:38.710Z,101291.80
2018-05-21T19:41:04.600Z,101292.75
2018-05-21T19:43:31.295Z,101295.16
2018-05-21T19:45:58.520Z,101304.63
2018-05-21T19:48:24.391Z,101294.15
2018-05-21T19:50:50.434Z,101296.44
2018-05-21T19:53:16.412Z,101293.34
2018-05-21T19:55:42.336Z,101296.52
2018-05-21T19:58:08.253Z,101300.91
2018-05-21T20:00:34.123Z,101295.55
2018-05-21T20:03:00.043Z,101300.05
2018-05-21T20:05:25.984Z,101294.72
2018-05-21T20:07:52.057Z,101293.73
2018-05-21T20:10:18.049Z,101296.27
2018-05-21T20:12:44.382Z,101290.92
2018-05-21T20:15:10.456Z,101294.81
2018-05-21T20:17:36.341Z,101292.52
2018-05-21T20:20:02.294Z,101287.87
2018-05-21T20:22:28.268Z,101286.37
2018-05-21T20:24:54.155Z,101287.41
2018-05-21T20:27:20.399Z,101281.44
2018-05-21T20:29:46.446Z,101286.55
2018-05-21T20:32:12.345Z,101278.81
2018-05-21T20:34:38.254Z,101283.98
2018-05-21T20:37:04.182Z,101278.81
2018-05-21T20:39:30.325Z,101285.95
2018-05-21T20:41:56.247Z,101281.11
2018-05-21T20:44:22.172Z,101282.43
2018-05-21T20:46:48.082Z,101284.13
2018-05-21T20:49:14.083Z,101284.31
2018-05-21T20:51:40.044Z,101275.93
2018-05-21T20:54:05.923Z,101279.95
2018-05-21T20:56:31.852Z,101279.98
2018-05-21T20:58:57.731Z,101278.84
2018-05-21T21:01:23.813Z,101280.74
2018-05-21T21:03:49.683Z,101279.67
2018-05-21T21:06:15.656Z,101276.30
2018-05-21T21:08:41.541Z,101278.70
2018-05-21T21:11:07.463Z,101284.64
2018-05-21T21:13:33.329Z,101276.83
2018-05-21T21:15:59.215Z,101275.62
2018-05-21T21:18:25.115Z,101283.28
2018-05-21T21:20:50.996Z,101277.70
2018-05-21T21:23:16.948Z,101277.83
2018-05-21T21:25:42.882Z,101280.61
2018-05-21T21:28:08.747Z,101277.74
2018-05-21T21:30:34.660Z,101280.31
2018-05-21T21:33:00.620Z,101271.21
2018-05-21T21:35:26.507Z,101269.62
2018-05-21T21:37:52.375Z,101264.98
2018-05-21T21:40:18.295Z,101270.80
2018-05-21T21:42:44.163Z,101263.89
2018-05-21T21:45:10.041Z,101271.03
2018-05-21T21:47:35.963Z,101265.03
2018-05-21T21:50:01.873Z,101260.15
2018-05-21T21:52:27.822Z,101263.20
2018-05-21T21:54:53.744Z,101261.36
2018-05-21T21:57:19.607Z,101258.20
2018-05-21T21:59:45.472Z,101261.38
2018-05-21T22:02:11.478Z,101256.46
2018-05-21T22:04:37.289Z,101260.55
2018-05-21T22:07:03.180Z,101255.37
2018-05-21T22:09:29.219Z,101254.59
2018-05-21T22:11:55.118Z,101249.02
2018-05-21T22:14:21.014Z,101247.91
2018-05-21T22:16:46.931Z,101246.19
2018-05-21T22:19:12.796Z,101249.75
2018-05-21T22:21:38.658Z,101241.89
2018-05-21T22:24:04.689Z,101244.64
2018-05-21T22:26:30.580Z,101246.00
2018-05-21T22:28:56.464Z,101241.22
2018-05-21T22:31:22.397Z,101240.52
2018-05-21T22:33:48.263Z,101230.05
2018-05-21T22:36:14.145Z,101238.62
2018-05-21T22:38:40.140Z,101231.64
2018-05-21T22:41:06.032Z,101227.81
2018-05-21T22:43:31.941Z,101227.58
2018-05-21T22:45:57.960Z,101231.11
2018-05-21T22:48:23.828Z,101226.38
2018-05-21T22:50:49.708Z,101234.03
2018-05-21T22:53:15.649Z,101227.52
2018-05-21T22:55:41.535Z,101222.65
2018-05-21T22:58:07.421Z,101217.50
2018-05-21T23:00:33.461Z,101219.44
2018-05-21T23:02:59.348Z,101229.20
2018-05-21T23:05:25.222Z,101224.04
2018-05-21T23:07:51.141Z,101216.72
2018-05-21T23:10:17.031Z,101219.05
2018-05-21T23:12:42.905Z,101217.47
2018-05-21T23:15:08.814Z,101213.27
2018-05-21T23:17:34.688Z,101210.73
2018-05-21T23:20:00.612Z,101212.59
2018-05-21T23:22:38.840Z,101212.73
2018-05-21T23:25:04.755Z,101214.61
2018-05-21T23:27:30.630Z,101210.33
2018-05-21T23:29:56.603Z,101208.69
2018-05-21T23:32:22.487Z,101208.42
2018-05-21T23:34:49.185Z,101208.45
2018-05-21T23:37:15.087Z,101208.95
2018-05-21T23:39:40.953Z,101210.79
2018-05-21T23:42:06.834Z,101210.84
2018-05-21T23:44:32.780Z,101203.52
2018-05-21T23:46:58.693Z,101207.24
2018-05-21T23:49:24.570Z,101202.91
2018-05-21T23:51:50.483Z,101203.05
2018-05-21T23:54:16.359Z,101200.94
2018-05-21T23:56:42.241Z,101202.75
2018-05-21T23:59:08.159Z,101197.08
